createdAt,value
2019-04-29T00:03:52.077Z,1.00
2019-04-29T00:08:58.208Z,1.00
2019-04-29T00:14:04.617Z,1.05
2019-04-29T00:19:31.917Z,1.00
2019-04-29T00:24:37.901Z,1.00
2019-04-29T00:29:43.731Z,1.15
2019-04-29T00:34:49.738Z,0.98
2019-04-29T00:40:16.360Z,0.80
2019-04-29T00:45:22.220Z,1.00
2019-04-29T00:50:27.447Z,0.80
2019-04-29T00:55:34.360Z,0.93
2019-04-29T01:00:41.649Z,0.80
2019-04-29T01:05:47.457Z,1.10
2019-04-29T01:10:53.288Z,1.00
2019-04-29T01:15:59.138Z,0.80
2019-04-29T01:21:04.727Z,0.85
2019-04-29T01:26:23.158Z,0.65
2019-04-29T01:31:32.310Z,0.88
2019-04-29T01:36:42.828Z,0.90
2019-04-29T01:42:02.727Z,0.75
2019-04-29T01:47:08.472Z,0.80
2019-04-29T01:52:14.227Z,0.93
2019-04-29T01:57:20.048Z,0.75
2019-04-29T02:02:25.827Z,0.90
2019-04-29T02:07:31.647Z,0.80
2019-04-29T02:12:37.424Z,0.93
2019-04-29T02:17:43.208Z,0.90
2019-04-29T02:23:06.357Z,0.78
2019-04-29T02:28:12.139Z,0.70
2019-04-29T02:33:17.950Z,0.90
2019-04-29T02:38:42.258Z,0.75
2019-04-29T02:43:49.638Z,0.90
2019-04-29T02:48:55.428Z,0.50
2019-04-29T02:54:01.227Z,0.88
2019-04-29T02:59:08.088Z,0.88
2019-04-29T03:04:35.228Z,0.85
2019-04-29T03:09:46.028Z,0.90
2019-04-29T03:14:51.799Z,0.90
2019-04-29T03:20:19.070Z,0.68
2019-04-29T03:25:24.878Z,0.68
2019-04-29T03:30:30.700Z,0.90
2019-04-29T03:35:36.497Z,0.68
2019-04-29T03:40:42.171Z,0.75
2019-04-29T03:45:48.048Z,0.70
2019-04-29T03:50:53.859Z,0.98
2019-04-29T03:55:59.721Z,0.80
2019-04-29T04:01:13.198Z,0.60
2019-04-29T04:06:49.588Z,0.80
2019-04-29T04:11:55.291Z,0.72
2019-04-29T04:17:31.623Z,0.70
2019-04-29T04:22:49.754Z,0.70
2019-04-29T04:27:55.627Z,0.70
2019-04-29T04:33:01.458Z,0.65
2019-04-29T04:38:07.338Z,0.70
2019-04-29T04:43:13.109Z,0.60
2019-04-29T04:48:18.837Z,0.72
2019-04-29T04:53:24.668Z,0.75
2019-04-29T04:58:30.447Z,0.80
2019-04-29T05:03:36.277Z,1.02
2019-04-29T05:08:41.967Z,1.50
2019-04-29T05:13:47.780Z,1.55
2019-04-29T05:18:53.617Z,1.47
2019-04-29T05:23:59.328Z,1.40
2019-04-29T05:29:05.139Z,1.42
2019-04-29T05:34:11.297Z,1.22
2019-04-29T05:39:23.387Z,1.70
2019-04-29T05:44:46.969Z,2.35
2019-04-29T05:50:11.782Z,1.42
2019-04-29T05:55:17.497Z,1.20
2019-04-29T06:00:24.263Z,1.00
2019-04-29T06:05:30.186Z,1.50
2019-04-29T06:10:36.408Z,1.17
2019-04-29T06:15:42.077Z,1.30
2019-04-29T06:20:47.805Z,1.40
2019-04-29T06:25:53.570Z,1.37
2019-04-29T06:30:59.528Z,1.62
2019-04-29T06:36:05.197Z,1.10
2019-04-29T06:41:11.003Z,1.70
2019-04-29T06:46:16.778Z,1.17
2019-04-29T06:51:22.508Z,1.40
2019-04-29T06:56:28.148Z,1.30
2019-04-29T07:01:37.592Z,0.98
2019-04-29T07:06:41.127Z,0.88
2019-04-29T07:11:46.787Z,0.82
2019-04-29T07:16:52.528Z,1.32
2019-04-29T07:21:58.147Z,0.88
2019-04-29T07:27:04.476Z,0.90
2019-04-29T07:32:10.736Z,1.10
2019-04-29T07:37:16.974Z,0.90
2019-04-29T07:42:25.095Z,1.35
2019-04-29T07:47:31.142Z,0.82
2019-04-29T07:52:36.937Z,0.70
2019-04-29T07:57:42.738Z,0.90
2019-04-29T08:02:48.517Z,0.90
2019-04-29T08:07:54.398Z,0.70
2019-04-29T08:13:01.357Z,0.80
2019-04-29T08:18:11.214Z,0.60
2019-04-29T08:23:14.338Z,1.07
2019-04-29T08:28:20.027Z,0.80
2019-04-29T08:33:25.870Z,1.17
2019-04-29T08:38:31.712Z,7.15
2019-04-29T08:43:52.512Z,9.43
2019-04-29T08:48:56.768Z,12.85
2019-04-29T08:54:02.369Z,17.20
2019-04-29T08:59:08.078Z,19.60
2019-04-29T09:04:13.962Z,17.75
2019-04-29T09:09:28.857Z,17.48
2019-04-29T09:14:27.148Z,15.65
2019-04-29T09:19:32.817Z,14.25
2019-04-29T09:24:43.700Z,13.32
2019-04-29T09:29:49.076Z,10.85
2019-04-29T09:34:55.429Z,8.23
2019-04-29T09:40:03.177Z,8.50
2019-04-29T09:45:24.501Z,8.03
2019-04-29T09:50:34.151Z,7.12
2019-04-29T09:55:40.066Z,6.83
2019-04-29T10:00:58.128Z,6.30
2019-04-29T10:06:12.447Z,6.53
2019-04-29T10:11:18.508Z,6.30
2019-04-29T10:16:55.608Z,5.42
2019-04-29T10:22:01.427Z,5.30
2019-04-29T10:27:07.465Z,3.87
2019-04-29T10:32:14.547Z,3.85
2019-04-29T10:37:23.773Z,3.50
2019-04-29T10:42:43.087Z,3.75
2019-04-29T10:47:58.890Z,3.75
2019-04-29T10:53:05.438Z,3.45
2019-04-29T10:58:11.407Z,2.98
2019-04-29T11:03:20.746Z,3.35
2019-04-29T11:08:43.123Z,3.92
2019-04-29T11:13:50.640Z,3.33
2019-04-29T11:19:00.333Z,3.02
2019-04-29T11:24:16.748Z,3.12
2019-04-29T11:29:27.472Z,2.90
2019-04-29T11:34:53.459Z,4.00
2019-04-29T11:39:57.281Z,3.20
2019-04-29T11:45:05.466Z,2.58
2019-04-29T11:50:29.649Z,2.10
2019-04-29T11:55:35.647Z,2.47
2019-04-29T12:01:08.355Z,2.83
2019-04-29T12:06:16.324Z,2.25
2019-04-29T12:11:22.739Z,2.58
2019-04-29T12:16:41.056Z,2.25
2019-04-29T12:21:47.307Z,2.00
2019-04-29T12:26:53.028Z,2.27
2019-04-29T12:32:08.557Z,1.90
2019-04-29T12:37:34.435Z,2.20
2019-04-29T12:42:57.817Z,1.65
2019-04-29T12:48:06.493Z,2.50
2019-04-29T12:53:11.948Z,3.15
2019-04-29T12:58:19.413Z,2.12
2019-04-29T13:03:41.118Z,2.87
2019-04-29T13:08:50.208Z,2.65
2019-04-29T13:13:58.314Z,2.50
2019-04-29T13:19:25.119Z,2.58
2019-04-29T13:24:31.769Z,2.33
2019-04-29T13:29:37.753Z,2.10
2019-04-29T13:34:45.438Z,1.92
2019-04-29T13:40:10.006Z,2.08
2019-04-29T13:45:20.155Z,2.05
2019-04-29T13:50:40.352Z,2.10
2019-04-29T13:55:49.202Z,2.27
2019-04-29T14:01:31.249Z,2.62
2019-04-29T14:06:31.766Z,2.27
2019-04-29T14:11:37.583Z,1.95
2019-04-29T14:16:47.565Z,1.90
2019-04-29T14:21:50.890Z,1.95
2019-04-29T14:26:56.757Z,1.70
2019-04-29T14:32:02.947Z,2.20
2019-04-29T14:37:21.311Z,1.90
2019-04-29T14:42:25.620Z,1.82
2019-04-29T14:47:50.351Z,1.70
2019-04-29T14:52:56.267Z,1.47
2019-04-29T14:58:02.148Z,1.70
2019-04-29T15:03:08.022Z,1.90
2019-04-29T15:08:14.056Z,2.65
2019-04-29T15:13:21.663Z,2.00
2019-04-29T15:18:50.057Z,2.30
2019-04-29T15:23:53.478Z,2.75
2019-04-29T15:28:59.597Z,2.83
2019-04-29T15:34:08.783Z,2.70
2019-04-29T15:39:12.941Z,2.75
2019-04-29T15:44:22.130Z,2.83
2019-04-29T15:49:26.644Z,3.47
2019-04-29T15:54:32.488Z,3.17
2019-04-29T15:59:48.681Z,4.87
2019-04-29T16:04:52.018Z,3.35
2019-04-29T16:10:22.838Z,3.22
2019-04-29T16:15:28.399Z,3.45
2019-04-29T16:20:34.229Z,3.98
2019-04-29T16:25:40.999Z,3.37
2019-04-29T16:30:47.286Z,3.55
2019-04-29T16:35:57.695Z,3.17
2019-04-29T16:41:12.582Z,3.52
2019-04-29T16:46:24.281Z,2.70
2019-04-29T16:51:34.089Z,2.58
2019-04-29T16:56:39.950Z,3.12
2019-04-29T17:01:45.618Z,2.90
2019-04-29T17:07:11.138Z,2.33
2019-04-29T17:12:00.268Z,2.83
2019-04-29T17:17:07.931Z,2.65
2019-04-29T17:22:25.348Z,2.62
2019-04-29T17:27:42.093Z,2.12
2019-04-29T17:33:04.169Z,2.70
2019-04-29T17:38:10.358Z,2.65
2019-04-29T17:43:33.351Z,2.47
2019-04-29T17:48:48.659Z,2.50
2019-04-29T17:53:59.306Z,2.55
2019-04-29T17:59:29.556Z,2.20
2019-04-29T18:04:54.211Z,2.02
2019-04-29T18:10:05.818Z,2.08
2019-04-29T18:15:17.320Z,2.30
2019-04-29T18:20:59.507Z,1.72
2019-04-29T18:26:23.088Z,1.72
2019-04-29T18:31:30.700Z,1.92
2019-04-29T18:36:36.239Z,2.10
2019-04-29T18:41:42.178Z,2.02
2019-04-29T18:46:53.614Z,2.00
2019-04-29T18:51:57.949Z,2.20
2019-04-29T18:57:03.189Z,2.47
2019-04-29T19:02:09.518Z,2.33
2019-04-29T19:07:15.828Z,1.95
2019-04-29T19:12:21.687Z,1.52
2019-04-29T19:17:30.782Z,1.65
2019-04-29T19:22:36.025Z,1.90
2019-04-29T19:27:41.857Z,1.98
2019-04-29T19:32:47.808Z,1.82
2019-04-29T19:37:53.868Z,1.60
2019-04-29T19:42:59.667Z,1.52
2019-04-29T19:48:05.912Z,2.20
2019-04-29T19:53:11.986Z,1.60
2019-04-29T19:58:22.931Z,1.70
2019-04-29T20:03:36.001Z,1.70
2019-04-29T20:08:50.905Z,1.55
2019-04-29T20:13:41.726Z,1.12
2019-04-29T20:19:12.201Z,1.52
2019-04-29T20:24:15.454Z,1.30
2019-04-29T20:29:20.218Z,1.35
2019-04-29T20:34:28.205Z,1.10
2019-04-29T20:39:35.384Z,1.40
2019-04-29T20:44:44.699Z,1.32
2019-04-29T20:49:48.632Z,1.55
2019-04-29T20:55:00.802Z,1.47
2019-04-29T21:00:02.775Z,1.30
2019-04-29T21:05:09.971Z,1.00
2019-04-29T21:10:17.766Z,1.30
2019-04-29T21:15:29.147Z,1.20
2019-04-29T21:20:35.078Z,1.27
2019-04-29T21:25:41.037Z,1.30
2019-04-29T21:30:46.938Z,1.30
2019-04-29T21:36:15.442Z,1.12
2019-04-29T21:41:31.548Z,1.10
2019-04-29T21:46:38.017Z,1.05
2019-04-29T21:51:48.437Z,1.15
2019-04-29T21:56:51.047Z,1.20
2019-04-29T22:01:59.123Z,1.15
2019-04-29T22:07:07.223Z,1.20
2019-04-29T22:12:14.195Z,1.10
2019-04-29T22:17:19.229Z,1.10
2019-04-29T22:22:25.077Z,1.40
2019-04-29T22:27:34.106Z,1.25
2019-04-29T22:32:38.598Z,1.10
2019-04-29T22:37:45.465Z,1.00
2019-04-29T22:43:08.408Z,1.07
2019-04-29T22:48:18.979Z,1.22
2019-04-29T22:53:18.847Z,1.10
2019-04-29T22:58:24.940Z,1.10
2019-04-29T23:03:32.796Z,0.90
2019-04-29T23:08:38.354Z,0.88
2019-04-29T23:13:46.183Z,1.05
2019-04-29T23:18:51.866Z,0.90
2019-04-29T23:24:13.165Z,1.20
2019-04-29T23:29:16.106Z,0.95
2019-04-29T23:34:25.859Z,1.10
2019-04-29T23:39:29.157Z,0.88
2019-04-29T23:44:37.880Z,1.00
2019-04-29T23:49:44.571Z,0.85
2019-04-29T23:54:51.148Z,1.15
